Yass Linton Hostel, New South Wales

6:55 AM AEST on September 24, 2014 (GMT +1000)
Urban environment | Change Station
CLOSE
Current Station
Personal Weather Station
Location: Yass, NEW SOUTH WALES
Elevation: 1709 ft
Nearby Weather Stations

Elev 1709 ft 34.85 °S, 148.91 °E | Updated 6 seconds ago

Patches of Fog
Patches Fog
47.5 °F
Feels Like 48 °F
N
0.0
Wind Variable Wind from ESE
Gusts 2.2 mph

Today
High -- | Low -- °F
--% Chance of Precip.
Yesterday
High -- | Low -- °F
Precip. -- in
5:51 AM 6:01 PM
Waning Crescent, 0% visible
Pressure 30.21 in
Visibility 6.2 miles
Clouds Few 18000 ft
Windchill 48 °F
Dew Point 37 °F
Humidity 67%
Rainfall 0.00 in
Snow Depth Not available.
UV 0 out of 12
Pollen Not available.
Air Quality Not available.
Flu Activity Not available.
SPECI YSCB 232030Z 03004KT 9999 BCFG FEW180 04/04 Q1023 FM2100 VRB03KT CAVOK

More Conditions Fewer Conditions

Pressure 30.21 in
Visibility 6.2 miles
Clouds Few 18000 ft
Windchill 48 °F
Dew Point 37 °F
Humidity 67%
Rainfall 0.00 in
Snow Depth Not available.
UV 0 out of 12
Pollen Not available.
Air Quality Not available.
Flu Activity Not available.
SPECI YSCB 232030Z 03004KT 9999 BCFG FEW180 04/04 Q1023 FM2100 VRB03KT CAVOK

More Conditions Fewer Conditions

10-Day Weather Forecast

Almanac

Astronomy

Sep. 24, 2014 Rise Set
Actual Time 5:51 AM AEST 6:01 PM AEST
Civil Twilight 5:26 AM AEST 6:27 PM AEST
Nautical Twilight 4:57 AM AEST 6:56 PM AEST
Astronomical Twilight 4:27 AM AEST 7:26 PM AEST
Moon 5:34 AM AEST (9/24) 6:02 PM AEST (9/24)
Length of Visible Light 13h 00m
Length of Day
12h 10m
Tomorrow will be 2m 10s longer.
Waning Crescent, 0% of the Moon is Illuminated
Sep 23
Waning Crescent
Sep 24
New
Oct 1
First Quarter
Oct 8
Full
Oct 15
Last Quarter

Yesterday's Extremes

Country Highs Country Lows

Community

WunderPhotos

Upload Photos

1,755,789 photos uploaded!

WunderBlogs® & News

By Dr. Jeff Masters
Director of Meteorology, Weather Underground
By Kari Strenfel
Meteorologist, Weather Underground
By Christopher C. Burt
Weather Historian, Weather Underground
September 23, 2014
September 23, 2014
September 23, 2014

Nearby

Snow Depth

Not available.

Earthquake Activity

City Distance Mag. Time & Date
No recent earthquake activity has been reported nearby.
Minimum magnitude displayed is 2.5.

Coastal Water Temperatures

Place Temperature
No Stations Reporting

Nearby Weather Stations